createdAt,value
2022-09-30T00:03:15.699Z,5.02
2022-09-30T00:08:18.583Z,4.92
2022-09-30T00:13:23.118Z,4.87
2022-09-30T00:18:25.961Z,4.81
2022-09-30T00:23:28.715Z,4.77
2022-09-30T00:28:33.098Z,4.70
2022-09-30T00:33:36.452Z,4.64
2022-09-30T00:38:39.254Z,4.58
2022-09-30T00:43:46.588Z,4.55
2022-09-30T00:48:53.898Z,4.51
2022-09-30T00:54:00.960Z,4.49
2022-09-30T00:59:09.546Z,4.46
2022-09-30T01:04:15.454Z,4.41
2022-09-30T01:09:19.421Z,4.46
2022-09-30T01:14:27.490Z,4.45
2022-09-30T01:19:59.170Z,4.46
2022-09-30T01:25:48.140Z,4.40
2022-09-30T01:31:12.514Z,4.31
2022-09-30T01:36:30.103Z,4.30
2022-09-30T01:41:45.556Z,4.27
2022-09-30T01:46:57.786Z,4.21
2022-09-30T01:52:06.798Z,4.20
2022-09-30T01:57:17.971Z,4.19
2022-09-30T02:02:25.846Z,4.13
2022-09-30T02:07:34.693Z,4.13
2022-09-30T02:12:48.142Z,4.15
2022-09-30T02:17:54.019Z,4.11
2022-09-30T02:23:03.411Z,4.09
2022-09-30T02:28:10.061Z,4.05
2022-09-30T02:33:19.554Z,4.02
2022-09-30T02:38:28.557Z,3.94
2022-09-30T02:43:32.033Z,3.87
2022-09-30T02:48:46.147Z,3.86
2022-09-30T02:53:58.975Z,3.88
2022-09-30T02:59:02.101Z,3.87
2022-09-30T03:04:08.895Z,3.79
2022-09-30T03:09:11.896Z,3.76
2022-09-30T03:14:34.757Z,3.67
2022-09-30T03:19:57.393Z,3.68
2022-09-30T03:25:15.352Z,3.65
2022-09-30T03:30:24.539Z,3.64
2022-09-30T03:35:34.361Z,3.67
2022-09-30T03:40:45.218Z,3.64
2022-09-30T03:45:55.950Z,3.64
2022-09-30T03:51:02.095Z,3.62
2022-09-30T03:56:04.862Z,3.64
2022-09-30T04:01:07.680Z,3.65
2022-09-30T04:06:14.285Z,3.60
2022-09-30T04:11:17.602Z,3.65
2022-09-30T04:16:20.368Z,3.68
2022-09-30T04:21:24.613Z,3.65
2022-09-30T04:26:27.431Z,3.64
2022-09-30T04:31:30.323Z,3.59
2022-09-30T04:36:34.830Z,3.63
2022-09-30T04:41:38.286Z,3.70
2022-09-30T04:46:41.025Z,3.72
2022-09-30T04:51:46.185Z,3.72
2022-09-30T04:56:49.000Z,3.78
2022-09-30T05:01:51.770Z,3.72
2022-09-30T05:06:56.054Z,3.75
2022-09-30T05:11:59.533Z,3.68
2022-09-30T05:17:02.266Z,3.68
2022-09-30T05:22:06.436Z,3.75
2022-09-30T05:27:10.109Z,3.73
2022-09-30T05:32:12.859Z,3.68
2022-09-30T05:37:17.051Z,3.76
2022-09-30T05:42:22.189Z,3.77
2022-09-30T05:47:25.211Z,3.80
2022-09-30T05:52:30.480Z,3.81
2022-09-30T05:57:33.263Z,3.79
2022-09-30T06:02:38.463Z,3.91
2022-09-30T06:07:42.821Z,3.92
2022-09-30T06:12:45.635Z,4.04
2022-09-30T06:17:53.363Z,4.15
2022-09-30T06:23:00.174Z,4.16
2022-09-30T06:28:03.561Z,4.22
2022-09-30T06:33:06.356Z,4.21
2022-09-30T06:38:10.599Z,4.37
2022-09-30T06:43:14.413Z,4.55
2022-09-30T06:48:26.312Z,4.73
2022-09-30T06:53:35.524Z,4.78
2022-09-30T06:58:40.369Z,4.80
2022-09-30T07:03:46.009Z,4.80
2022-09-30T07:08:50.595Z,4.90
2022-09-30T07:13:54.295Z,5.11
2022-09-30T07:18:58.064Z,5.30
2022-09-30T07:24:02.847Z,5.43
2022-09-30T07:29:07.219Z,5.40
2022-09-30T07:34:10.646Z,5.68
2022-09-30T07:39:15.428Z,5.74
2022-09-30T07:44:18.594Z,5.80
2022-09-30T07:49:25.936Z,6.11
2022-09-30T07:54:31.946Z,6.10
2022-09-30T08:00:11.813Z,6.33
2022-09-30T08:05:23.000Z,6.39
2022-09-30T08:10:27.724Z,6.51
2022-09-30T08:15:31.241Z,6.90
2022-09-30T08:20:34.929Z,7.06
2022-09-30T08:25:39.341Z,7.10
2022-09-30T08:30:42.637Z,7.41
2022-09-30T08:35:45.443Z,7.40
2022-09-30T08:41:00.208Z,7.75
2022-09-30T08:46:10.730Z,7.81
2022-09-30T08:51:29.661Z,7.99
2022-09-30T08:56:36.491Z,8.24
2022-09-30T09:01:47.579Z,8.53
2022-09-30T09:06:59.758Z,8.61
2022-09-30T09:12:22.519Z,9.07
2022-09-30T09:17:38.098Z,8.86
2022-09-30T09:22:41.846Z,9.84
2022-09-30T09:27:52.516Z,9.75
2022-09-30T09:33:23.217Z,9.93
2022-09-30T09:38:35.902Z,10.64
2022-09-30T09:43:58.298Z,10.93
2022-09-30T09:49:31.289Z,11.17
2022-09-30T09:54:42.298Z,11.12
2022-09-30T10:05:33.270Z,11.92
2022-09-30T10:10:45.424Z,12.57
2022-09-30T10:15:51.554Z,12.51
2022-09-30T10:20:58.694Z,13.15
2022-09-30T10:26:05.000Z,13.51
2022-09-30T10:31:15.334Z,13.76
2022-09-30T10:36:22.876Z,14.46
2022-09-30T10:41:29.868Z,14.77
2022-09-30T10:46:39.143Z,14.88
2022-09-30T10:51:46.964Z,15.07
2022-09-30T10:56:53.422Z,15.45
2022-09-30T11:02:06.604Z,15.78
2022-09-30T11:07:22.745Z,17.14
2022-09-30T11:12:33.562Z,17.18
2022-09-30T11:17:43.800Z,18.02
2022-09-30T11:22:53.843Z,18.16
2022-09-30T11:28:16.750Z,18.30
2022-09-30T11:33:36.137Z,19.23
2022-09-30T11:38:53.671Z,19.51
2022-09-30T11:44:06.379Z,17.55
2022-09-30T11:49:29.816Z,18.57
2022-09-30T11:54:44.769Z,19.40
2022-09-30T11:59:53.833Z,20.40
2022-09-30T12:05:01.533Z,21.77
2022-09-30T12:10:15.745Z,21.06
2022-09-30T12:15:21.337Z,22.44
2022-09-30T12:20:30.162Z,22.08
2022-09-30T12:25:37.946Z,22.60
2022-09-30T12:30:41.534Z,22.50
2022-09-30T12:36:10.606Z,21.21
2022-09-30T12:41:32.246Z,23.40
2022-09-30T12:46:53.803Z,21.22
2022-09-30T12:52:00.979Z,22.07
2022-09-30T12:57:09.202Z,20.98
2022-09-30T13:02:30.289Z,20.57
2022-09-30T13:07:34.596Z,20.18
2022-09-30T13:12:45.862Z,20.55
2022-09-30T13:17:49.570Z,19.51
2022-09-30T13:23:00.887Z,18.74
2022-09-30T13:28:30.419Z,18.64
2022-09-30T13:33:44.919Z,18.54
2022-09-30T13:39:07.873Z,18.01
2022-09-30T13:44:17.991Z,17.98
2022-09-30T13:49:25.422Z,17.76
2022-09-30T13:54:34.004Z,17.60
2022-09-30T13:59:57.178Z,17.17
2022-09-30T14:05:17.329Z,16.96
2022-09-30T14:10:44.028Z,16.33
2022-09-30T14:16:19.263Z,16.27
2022-09-30T14:21:36.615Z,16.73
2022-09-30T14:27:00.803Z,16.45
2022-09-30T14:32:12.442Z,16.56
2022-09-30T14:37:21.467Z,16.63
2022-09-30T14:42:31.218Z,16.87
2022-09-30T14:47:37.535Z,16.60
2022-09-30T14:52:45.139Z,16.21
2022-09-30T14:57:50.085Z,16.33
2022-09-30T15:02:52.893Z,16.01
2022-09-30T15:07:55.744Z,16.07
2022-09-30T15:13:00.638Z,16.22
2022-09-30T15:18:24.006Z,16.08
2022-09-30T15:23:29.830Z,15.84
2022-09-30T15:28:35.059Z,15.78
2022-09-30T15:33:37.878Z,15.67
2022-09-30T15:38:41.015Z,15.52
2022-09-30T15:43:50.297Z,15.49
2022-09-30T15:48:53.379Z,15.14
2022-09-30T15:53:58.012Z,15.11
2022-09-30T15:59:04.243Z,14.96
2022-09-30T16:04:14.305Z,14.98
2022-09-30T16:09:24.670Z,14.89
2022-09-30T16:14:30.769Z,14.59
2022-09-30T16:19:33.839Z,14.37
2022-09-30T16:24:48.880Z,14.29
2022-09-30T16:29:53.055Z,14.21
2022-09-30T16:34:56.133Z,14.06
2022-09-30T16:40:11.354Z,13.97
2022-09-30T16:45:16.199Z,13.73
2022-09-30T16:50:32.284Z,13.48
2022-09-30T16:55:35.153Z,13.41
2022-09-30T17:00:42.790Z,13.22
2022-09-30T17:05:52.985Z,13.07
2022-09-30T17:10:57.776Z,12.94
2022-09-30T17:16:02.685Z,12.75
2022-09-30T17:21:05.863Z,12.68
2022-09-30T17:26:08.655Z,12.51
2022-09-30T17:31:12.961Z,12.36
2022-09-30T17:36:15.905Z,12.22
2022-09-30T17:41:36.270Z,12.15
2022-09-30T17:46:46.066Z,12.00
2022-09-30T17:51:49.370Z,11.93
2022-09-30T17:56:52.127Z,11.90
2022-09-30T18:01:57.275Z,11.75
2022-09-30T18:07:00.096Z,11.68
2022-09-30T18:12:04.487Z,11.45
2022-09-30T18:17:08.509Z,11.17
2022-09-30T18:22:12.086Z,11.06
2022-09-30T18:27:15.077Z,10.97
2022-09-30T18:32:19.266Z,10.82
2022-09-30T18:37:21.990Z,10.68
2022-09-30T18:42:24.789Z,10.56
2022-09-30T18:47:28.821Z,10.40
2022-09-30T18:52:31.618Z,10.41
2022-09-30T18:57:34.695Z,10.30
2022-09-30T19:02:40.184Z,10.15
2022-09-30T19:07:43.825Z,10.01
2022-09-30T19:12:46.899Z,9.87
2022-09-30T19:17:53.598Z,9.69
2022-09-30T19:22:56.536Z,9.58
2022-09-30T19:28:00.253Z,9.48
2022-09-30T19:33:05.217Z,9.40
2022-09-30T19:38:09.261Z,9.27
2022-09-30T19:43:12.006Z,9.15
2022-09-30T19:48:16.148Z,8.98
2022-09-30T19:53:29.204Z,8.87
2022-09-30T19:58:35.167Z,8.74
2022-09-30T20:03:40.641Z,8.68
2022-09-30T20:08:45.750Z,8.54
2022-09-30T20:13:51.131Z,8.42
2022-09-30T20:18:55.785Z,8.28
2022-09-30T20:23:59.780Z,8.21
2022-09-30T20:29:02.665Z,8.09
2022-09-30T20:34:06.869Z,7.98
2022-09-30T20:39:10.583Z,7.86
2022-09-30T20:44:14.122Z,7.79
2022-09-30T20:49:18.238Z,7.70
2022-09-30T20:54:22.471Z,7.61
2022-09-30T20:59:25.318Z,7.54
2022-09-30T21:04:29.458Z,7.49
2022-09-30T21:09:34.789Z,7.40
2022-09-30T21:14:38.713Z,7.32
2022-09-30T21:19:43.626Z,7.23
2022-09-30T21:24:47.701Z,7.19
2022-09-30T21:29:50.472Z,7.14
2022-09-30T21:34:56.811Z,7.19
2022-09-30T21:39:59.579Z,7.18
2022-09-30T21:45:02.556Z,7.17
2022-09-30T21:50:07.968Z,7.20
2022-09-30T21:55:13.272Z,7.21
2022-09-30T22:00:16.609Z,7.22
2022-09-30T22:05:20.752Z,7.45
2022-09-30T22:10:23.530Z,7.55
2022-09-30T22:15:26.985Z,7.57
2022-09-30T22:20:31.124Z,7.60
2022-09-30T22:25:33.827Z,7.69
2022-09-30T22:30:36.661Z,7.66
2022-09-30T22:35:58.666Z,7.62
2022-09-30T22:41:01.800Z,7.62
2022-09-30T22:46:06.011Z,7.57
2022-09-30T22:51:15.498Z,7.58
2022-09-30T22:56:18.567Z,7.60
2022-09-30T23:01:21.613Z,7.62
2022-09-30T23:06:25.923Z,7.59
2022-09-30T23:11:28.741Z,7.59
2022-09-30T23:16:31.826Z,7.59
2022-09-30T23:21:36.551Z,7.60
2022-09-30T23:26:40.236Z,7.63
2022-09-30T23:31:43.433Z,7.66
2022-09-30T23:36:47.482Z,7.72
2022-09-30T23:41:51.025Z,7.77
2022-09-30T23:47:11.133Z,7.84
2022-09-30T23:52:15.830Z,7.90
2022-09-30T23:57:18.610Z,7.90
